Time;durP1;ratioP1;P1;durP2;ratioP2;P2;SDS_P1;SDS_P2;PMS_P1;PMS_P2;Temp;Humidity;BMP_temperature;BMP_pressure;BME280_temperature;BME280_humidity;BME280_pressure;Samples;Min_cycle;Max_cycle;Signal;HPM_P1;HPM_P2
2024/03/26 00:00:02;;;;;;;9.93;4.10;;;;;;;;;;4980365;28;20320;-86
2024/03/26 00:02:27;;;;;;;10.30;4.80;;;;;;;;;;4974623;28;20218;-85
2024/03/26 00:04:53;;;;;;;9.33;4.33;;;;;;;;;;4976616;28;20611;-86
2024/03/26 00:07:18;;;;;;;11.77;4.80;;;;;;;;;;4979000;28;20252;-85
2024/03/26 00:09:46;;;;;;;7.93;4.30;;;;;;;;;;4977919;28;20226;-86
2024/03/26 00:12:14;;;;;;;9.23;4.10;;;;;;;;;;5000832;28;20239;-84
2024/03/26 00:18:29;;;;;;;10.07;4.60;;;;;;;;;;4986421;28;20802;-88
2024/03/26 00:20:57;;;;;;;9.07;4.30;;;;;;;;;;4958103;28;20314;-86
2024/03/26 00:23:25;;;;;;;6.40;4.13;;;;;;;;;;4984373;28;20218;-87
2024/03/26 00:25:50;;;;;;;7.53;4.60;;;;;;;;;;4968079;28;20232;-85
2024/03/26 00:28:16;;;;;;;10.27;4.40;;;;;;;;;;5006994;28;20235;-84
2024/03/26 00:30:41;;;;;;;7.47;4.10;;;;;;;;;;4980341;28;20283;-84
2024/03/26 00:33:10;;;;;;;11.13;4.27;;;;;;;;;;4995773;28;20217;-84
2024/03/26 00:35:36;;;;;;;9.13;4.00;;;;;;;;;;4996514;28;20236;-82
2024/03/26 00:38:02;;;;;;;9.00;4.53;;;;;;;;;;4973493;28;20249;-81
2024/03/26 00:40:30;;;;;;;7.40;4.13;;;;;;;;;;5006102;28;20236;-82
2024/03/26 00:42:55;;;;;;;8.53;4.17;;;;;;;;;;4980853;28;20300;-83
2024/03/26 01:04:18;;;;;;;10.37;4.40;;;;;;;;;;4997575;28;20244;-82
2024/03/26 01:06:44;;;;;;;7.77;3.93;;;;;;;;;;4964239;28;20214;-83
2024/03/26 01:09:09;;;;;;;9.00;3.80;;;;;;;;;;4952936;28;20226;-81
2024/03/26 01:11:35;;;;;;;12.73;4.90;;;;;;;;;;5003669;28;20231;-85
2024/03/26 01:14:00;;;;;;;8.10;4.57;;;;;;;;;;4980440;28;20243;-84
2024/03/26 01:16:26;;;;;;;9.10;4.43;;;;;;;;;;5010806;28;20253;-84
2024/03/26 01:18:54;;;;;;;8.57;4.23;;;;;;;;;;4963408;28;20257;-83
2024/03/26 01:21:19;;;;;;;9.87;4.20;;;;;;;;;;4967150;28;20236;-86
2024/03/26 01:23:49;;;;;;;7.40;3.90;;;;;;;;;;4986164;28;20226;-86
2024/03/26 01:26:15;;;;;;;6.50;4.10;;;;;;;;;;4969945;28;20644;-84
2024/03/26 01:28:40;;;;;;;5.70;3.90;;;;;;;;;;4952608;28;20221;-87
2024/03/26 01:31:06;;;;;;;8.27;3.80;;;;;;;;;;4956995;28;20617;-88
2024/03/26 01:33:32;;;;;;;7.30;4.10;;;;;;;;;;4955843;28;20256;-88
2024/03/26 01:35:59;;;;;;;9.63;4.27;;;;;;;;;;4950228;28;20238;-87
2024/03/26 01:38:25;;;;;;;7.97;3.93;;;;;;;;;;4963332;28;20217;-84
2024/03/26 01:40:53;;;;;;;5.60;4.20;;;;;;;;;;4986287;28;20229;-88
2024/03/26 01:43:18;;;;;;;6.87;3.93;;;;;;;;;;4999056;28;20590;-86
2024/03/26 01:45:46;;;;;;;6.20;3.80;;;;;;;;;;4998315;28;20229;-86
2024/03/26 01:48:11;;;;;;;11.60;4.30;;;;;;;;;;4955480;28;20225;-87
2024/03/26 01:50:39;;;;;;;6.03;3.83;;;;;;;;;;4954638;28;20218;-87
2024/03/26 01:53:07;;;;;;;6.50;3.53;;;;;;;;;;4962005;28;20221;-86
2024/03/26 01:55:36;;;;;;;7.97;4.03;;;;;;;;;;4953539;28;20232;-86
2024/03/26 01:58:01;;;;;;;9.03;3.77;;;;;;;;;;4998008;28;20225;-86
2024/03/26 02:00:26;;;;;;;22.67;4.43;;;;;;;;;;4984228;28;20209;-86
2024/03/26 02:02:54;;;;;;;9.00;4.00;;;;;;;;;;5003769;28;20232;-84
2024/03/26 02:05:23;;;;;;;7.90;3.77;;;;;;;;;;5003603;28;20639;-85
2024/03/26 02:07:50;;;;;;;9.70;4.20;;;;;;;;;;5000072;28;20244;-87
2024/03/26 02:10:16;;;;;;;7.97;4.00;;;;;;;;;;4975342;28;20222;-87
2024/03/26 02:12:41;;;;;;;9.93;4.00;;;;;;;;;;4971923;28;20236;-86
2024/03/26 02:15:07;;;;;;;7.17;4.03;;;;;;;;;;4958514;28;20222;-86
2024/03/26 02:17:35;;;;;;;7.43;3.53;;;;;;;;;;4975807;28;20217;-86
2024/03/26 02:20:04;;;;;;;6.50;4.13;;;;;;;;;;5003309;28;20247;-88
2024/03/26 02:22:29;;;;;;;11.03;4.43;;;;;;;;;;4981470;28;20221;-86
2024/03/26 02:24:55;;;;;;;9.87;3.80;;;;;;;;;;4997960;28;20225;-86
2024/03/26 02:27:20;;;;;;;5.67;4.00;;;;;;;;;;4995061;28;20805;-85
2024/03/26 02:29:46;;;;;;;11.37;4.07;;;;;;;;;;4956663;28;20606;-85
2024/03/26 02:32:12;;;;;;;6.50;3.63;;;;;;;;;;5009947;28;20697;-87
2024/03/26 02:34:38;;;;;;;10.37;4.40;;;;;;;;;;4960828;28;20305;-88
2024/03/26 02:37:08;;;;;;;10.23;4.20;;;;;;;;;;4960354;28;20270;-87
2024/03/26 02:39:39;;;;;;;7.43;3.80;;;;;;;;;;4965222;28;20249;-87
2024/03/26 02:42:04;;;;;;;7.53;4.00;;;;;;;;;;4977804;28;20240;-86
2024/03/26 02:44:32;;;;;;;6.47;4.20;;;;;;;;;;4982728;28;20221;-88
2024/03/26 02:47:00;;;;;;;10.23;4.20;;;;;;;;;;4961113;28;20766;-87
2024/03/26 02:49:25;;;;;;;6.77;4.20;;;;;;;;;;4976442;28;20224;-86
2024/03/26 02:51:51;;;;;;;12.57;4.07;;;;;;;;;;4943690;28;20222;-86
2024/03/26 02:54:16;;;;;;;9.53;4.50;;;;;;;;;;4972493;28;20222;-86
2024/03/26 02:56:44;;;;;;;11.73;4.63;;;;;;;;;;4956305;28;20245;-87
2024/03/26 02:59:12;;;;;;;8.03;4.10;;;;;;;;;;4956820;28;20234;-88
2024/03/26 03:01:40;;;;;;;8.43;4.30;;;;;;;;;;4967758;28;20280;-87
2024/03/26 03:04:05;;;;;;;9.43;4.63;;;;;;;;;;4959281;28;20229;-86
2024/03/26 03:06:33;;;;;;;9.17;4.13;;;;;;;;;;4958460;28;20277;-87
2024/03/26 03:08:59;;;;;;;8.43;4.37;;;;;;;;;;4976472;28;20569;-87
2024/03/26 03:11:26;;;;;;;12.90;4.70;;;;;;;;;;5002120;28;20208;-86
2024/03/26 03:13:52;;;;;;;11.87;4.63;;;;;;;;;;4990442;28;20226;-87
2024/03/26 03:16:22;;;;;;;9.27;4.93;;;;;;;;;;4983784;28;20325;-86
2024/03/26 03:18:53;;;;;;;12.40;4.70;;;;;;;;;;4978174;28;20221;-86
2024/03/26 03:21:21;;;;;;;8.03;4.67;;;;;;;;;;4986012;28;20229;-87
2024/03/26 03:23:48;;;;;;;8.03;4.60;;;;;;;;;;4965900;28;20221;-87
2024/03/26 03:26:14;;;;;;;9.00;4.77;;;;;;;;;;4996745;28;20235;-86
2024/03/26 03:28:39;;;;;;;9.30;4.67;;;;;;;;;;4983961;28;20595;-87
2024/03/26 03:31:05;;;;;;;10.80;4.90;;;;;;;;;;5017867;28;20220;-87
2024/03/26 03:33:33;;;;;;;9.20;4.30;;;;;;;;;;5006320;28;20231;-86
2024/03/26 03:35:59;;;;;;;8.00;4.47;;;;;;;;;;4990573;28;20230;-86
2024/03/26 03:38:25;;;;;;;7.37;4.60;;;;;;;;;;5013603;28;20309;-86
2024/03/26 03:40:52;;;;;;;9.73;4.90;;;;;;;;;;4946545;28;20709;-86
2024/03/26 03:43:18;;;;;;;8.47;4.70;;;;;;;;;;4976573;28;20309;-87
2024/03/26 03:45:43;;;;;;;6.47;4.60;;;;;;;;;;4979859;28;20225;-88
2024/03/26 03:48:11;;;;;;;8.10;4.37;;;;;;;;;;5015865;28;20279;-85
2024/03/26 03:50:37;;;;;;;9.50;5.00;;;;;;;;;;4994395;28;20315;-87
2024/03/26 03:53:04;;;;;;;7.50;4.60;;;;;;;;;;5022845;28;20233;-86
2024/03/26 03:55:32;;;;;;;9.87;4.80;;;;;;;;;;4969415;28;20234;-87
2024/03/26 04:01:44;;;;;;;9.27;4.20;;;;;;;;;;4997374;28;20237;-88
2024/03/26 04:04:13;;;;;;;9.47;4.50;;;;;;;;;;4980980;28;20218;-86
2024/03/26 04:06:39;;;;;;;6.97;4.03;;;;;;;;;;4970329;28;20238;-87
2024/03/26 04:09:07;;;;;;;7.57;4.57;;;;;;;;;;4964950;28;20244;-87
2024/03/26 04:11:34;;;;;;;7.27;4.93;;;;;;;;;;4999194;28;20232;-86
2024/03/26 04:14:00;;;;;;;7.70;4.37;;;;;;;;;;4955923;28;20221;-87
2024/03/26 04:16:25;;;;;;;5.67;4.30;;;;;;;;;;4973241;28;20287;-87
2024/03/26 04:18:51;;;;;;;12.10;4.30;;;;;;;;;;5000713;28;20225;-88
2024/03/26 04:21:19;;;;;;;6.47;4.13;;;;;;;;;;4957858;28;20828;-87
2024/03/26 04:23:46;;;;;;;9.10;4.10;;;;;;;;;;4986978;28;20221;-88
2024/03/26 04:26:12;;;;;;;6.73;4.30;;;;;;;;;;4981244;28;20225;-87
2024/03/26 04:28:40;;;;;;;9.37;4.57;;;;;;;;;;4990246;28;20221;-87
2024/03/26 04:31:05;;;;;;;5.57;3.93;;;;;;;;;;4985652;28;20205;-87
2024/03/26 04:33:31;;;;;;;9.07;4.50;;;;;;;;;;4994386;28;20690;-87
2024/03/26 04:35:59;;;;;;;7.43;3.83;;;;;;;;;;4958348;28;20240;-87
2024/03/26 04:38:26;;;;;;;7.73;4.10;;;;;;;;;;4959191;28;20240;-87
2024/03/26 04:40:57;;;;;;;8.20;4.20;;;;;;;;;;4949838;28;20218;-85
2024/03/26 04:43:27;;;;;;;8.27;3.80;;;;;;;;;;4981704;28;20298;-86
2024/03/26 04:45:55;;;;;;;7.97;3.83;;;;;;;;;;4975110;28;20233;-79
2024/03/26 04:48:21;;;;;;;8.03;3.73;;;;;;;;;;4994995;28;20217;-80
2024/03/26 04:50:46;;;;;;;8.30;4.37;;;;;;;;;;4980476;28;20217;-80
2024/03/26 04:53:12;;;;;;;7.33;3.77;;;;;;;;;;4963723;28;20221;-80
2024/03/26 04:55:40;;;;;;;9.43;4.00;;;;;;;;;;4986765;28;20225;-80
2024/03/26 04:58:07;;;;;;;8.57;4.20;;;;;;;;;;4986354;28;20222;-81
2024/03/26 05:00:33;;;;;;;9.50;4.23;;;;;;;;;;4984264;28;20217;-80
2024/03/26 05:02:59;;;;;;;7.50;3.90;;;;;;;;;;4999774;28;20614;-80
2024/03/26 05:05:25;;;;;;;6.60;4.27;;;;;;;;;;4973600;28;20716;-80
2024/03/26 05:07:51;;;;;;;5.40;3.33;;;;;;;;;;4984882;28;20228;-79
2024/03/26 05:10:17;;;;;;;7.27;3.73;;;;;;;;;;5016646;28;20240;-81
2024/03/26 05:12:43;;;;;;;7.37;3.80;;;;;;;;;;5022995;28;20247;-78
2024/03/26 05:15:09;;;;;;;9.37;4.30;;;;;;;;;;4995974;28;20312;-81
2024/03/26 05:17:34;;;;;;;7.87;3.80;;;;;;;;;;5000128;28;20805;-80
2024/03/26 05:20:00;;;;;;;4.50;3.53;;;;;;;;;;4976705;28;20225;-79
2024/03/26 05:22:29;;;;;;;10.70;4.13;;;;;;;;;;4974217;28;20214;-79
2024/03/26 05:24:54;;;;;;;7.10;3.70;;;;;;;;;;4967631;28;20231;-79
2024/03/26 05:27:20;;;;;;;7.97;3.63;;;;;;;;;;4991868;28;20231;-80
2024/03/26 05:29:45;;;;;;;7.77;3.50;;;;;;;;;;4967052;28;20233;-80
2024/03/26 05:32:11;;;;;;;6.17;3.57;;;;;;;;;;4949580;28;20230;-79
2024/03/26 05:34:36;;;;;;;6.83;3.83;;;;;;;;;;4971012;28;20677;-79
2024/03/26 05:37:02;;;;;;;7.17;4.10;;;;;;;;;;5002526;28;20281;-80
2024/03/26 05:39:28;;;;;;;7.37;4.30;;;;;;;;;;4971039;28;20260;-78
2024/03/26 05:41:53;;;;;;;7.63;3.80;;;;;;;;;;4985951;28;20233;-80
2024/03/26 05:44:19;;;;;;;9.30;3.90;;;;;;;;;;4982147;28;20221;-79
2024/03/26 05:46:46;;;;;;;9.90;3.70;;;;;;;;;;4949870;28;20295;-81
2024/03/26 05:49:23;;;;;;;9.20;4.67;;;;;;;;;;4966352;28;20237;-78
2024/03/26 05:51:48;;;;;;;8.60;4.47;;;;;;;;;;4965862;28;20229;-79
2024/03/26 05:54:17;;;;;;;8.67;3.90;;;;;;;;;;4996362;28;20281;-78
2024/03/26 05:56:43;;;;;;;9.30;3.90;;;;;;;;;;4973102;28;20234;-79
2024/03/26 05:59:13;;;;;;;6.10;3.90;;;;;;;;;;4971283;28;20302;-79
2024/03/26 06:01:38;;;;;;;6.13;3.57;;;;;;;;;;4992325;28;20670;-78
2024/03/26 06:04:04;;;;;;;6.30;3.93;;;;;;;;;;4969936;28;20225;-77
2024/03/26 06:06:29;;;;;;;10.87;4.73;;;;;;;;;;4975211;28;20257;-79
2024/03/26 06:08:55;;;;;;;6.70;4.00;;;;;;;;;;4972489;28;20233;-80
2024/03/26 06:11:20;;;;;;;9.47;3.87;;;;;;;;;;4953882;28;20222;-78
2024/03/26 06:13:46;;;;;;;9.90;4.50;;;;;;;;;;5002292;28;20240;-80
2024/03/26 06:16:11;;;;;;;9.07;4.40;;;;;;;;;;4971992;28;20248;-79
2024/03/26 06:18:40;;;;;;;7.17;3.90;;;;;;;;;;4988162;28;20253;-77
2024/03/26 06:21:06;;;;;;;6.40;4.10;;;;;;;;;;4967898;28;20715;-80
2024/03/26 06:23:32;;;;;;;5.93;3.83;;;;;;;;;;4975633;28;20217;-80
2024/03/26 06:25:57;;;;;;;7.23;4.00;;;;;;;;;;4954780;28;20598;-79
2024/03/26 06:28:23;;;;;;;7.13;3.93;;;;;;;;;;4975813;28;20240;-79
2024/03/26 06:30:49;;;;;;;6.17;4.00;;;;;;;;;;4970914;28;20273;-79
2024/03/26 06:33:14;;;;;;;6.97;4.27;;;;;;;;;;4957270;28;20222;-82
2024/03/26 06:35:40;;;;;;;7.20;4.37;;;;;;;;;;5005213;28;20229;-79
2024/03/26 06:38:06;;;;;;;5.87;4.00;;;;;;;;;;4972354;28;20307;-78
2024/03/26 06:40:32;;;;;;;7.47;3.97;;;;;;;;;;4974172;28;20221;-78
2024/03/26 06:42:57;;;;;;;7.03;4.30;;;;;;;;;;4961387;28;20222;-77
2024/03/26 06:45:23;;;;;;;8.23;4.30;;;;;;;;;;4972612;28;20233;-78
2024/03/26 06:47:51;;;;;;;8.00;4.27;;;;;;;;;;4987291;28;20222;-80
2024/03/26 06:50:17;;;;;;;5.90;4.40;;;;;;;;;;5004238;28;20273;-80
2024/03/26 06:52:52;;;;;;;5.23;4.33;;;;;;;;;;4988021;28;20279;-78
2024/03/26 06:55:18;;;;;;;6.33;4.40;;;;;;;;;;4986478;28;20263;-79
2024/03/26 06:57:46;;;;;;;6.67;4.50;;;;;;;;;;4976232;28;20226;-79
2024/03/26 07:00:12;;;;;;;8.33;4.43;;;;;;;;;;4990236;28;20240;-79
2024/03/26 07:02:41;;;;;;;6.80;4.60;;;;;;;;;;4992584;28;20217;-80
2024/03/26 07:05:07;;;;;;;5.33;4.37;;;;;;;;;;4945090;28;20742;-78
2024/03/26 07:07:34;;;;;;;8.80;4.67;;;;;;;;;;4998406;28;20225;-79
2024/03/26 07:10:00;;;;;;;6.33;4.60;;;;;;;;;;4981393;28;20237;-80
2024/03/26 07:12:26;;;;;;;7.63;4.70;;;;;;;;;;5003215;28;20217;-81
2024/03/26 07:14:54;;;;;;;7.50;4.47;;;;;;;;;;4990667;28;20667;-82
2024/03/26 07:17:19;;;;;;;6.43;4.60;;;;;;;;;;5002861;28;20226;-78
2024/03/26 07:19:45;;;;;;;9.33;5.07;;;;;;;;;;4989527;28;20217;-79
2024/03/26 07:22:10;;;;;;;8.30;4.70;;;;;;;;;;5003537;28;20252;-81
2024/03/26 07:24:38;;;;;;;7.27;4.57;;;;;;;;;;4973285;28;20273;-81
2024/03/26 07:27:04;;;;;;;6.17;4.77;;;;;;;;;;5000670;28;21049;-80
2024/03/26 07:29:32;;;;;;;7.50;4.43;;;;;;;;;;5005331;28;20232;-79
2024/03/26 07:31:58;;;;;;;7.03;4.23;;;;;;;;;;5004771;28;20249;-80
2024/03/26 07:34:23;;;;;;;7.53;4.33;;;;;;;;;;4999154;28;20231;-79
2024/03/26 07:36:49;;;;;;;6.23;4.20;;;;;;;;;;4991412;28;20304;-81
2024/03/26 07:39:19;;;;;;;6.13;4.43;;;;;;;;;;4957008;28;20276;-80
2024/03/26 07:41:46;;;;;;;6.73;4.53;;;;;;;;;;4966452;28;20556;-79
2024/03/26 07:44:11;;;;;;;5.13;4.50;;;;;;;;;;4986671;28;20229;-80
2024/03/26 07:46:37;;;;;;;4.90;4.40;;;;;;;;;;4975607;28;20229;-81
2024/03/26 07:49:04;;;;;;;5.37;4.30;;;;;;;;;;4975870;28;20217;-81
2024/03/26 07:51:34;;;;;;;5.67;4.00;;;;;;;;;;5003980;28;20225;-80
2024/03/26 07:54:02;;;;;;;5.70;4.23;;;;;;;;;;5006149;28;20226;-81
2024/03/26 07:56:27;;;;;;;4.20;3.70;;;;;;;;;;4977710;28;20651;-80
2024/03/26 07:58:58;;;;;;;6.60;3.83;;;;;;;;;;4978107;28;20217;-80
2024/03/26 08:01:23;;;;;;;6.20;3.93;;;;;;;;;;4993283;28;20228;-79
2024/03/26 08:03:54;;;;;;;5.10;3.90;;;;;;;;;;4977455;28;20236;-78
2024/03/26 08:06:20;;;;;;;5.90;3.90;;;;;;;;;;4956770;28;20238;-80
2024/03/26 08:08:50;;;;;;;6.77;3.37;;;;;;;;;;4988733;28;20533;-79
2024/03/26 08:11:16;;;;;;;3.87;3.10;;;;;;;;;;4997208;28;20309;-79
2024/03/26 08:13:44;;;;;;;4.77;3.47;;;;;;;;;;4989784;28;20217;-79
2024/03/26 08:16:12;;;;;;;4.83;2.93;;;;;;;;;;4983913;28;20221;-79
2024/03/26 08:18:40;;;;;;;5.73;3.47;;;;;;;;;;4989030;28;20217;-79
2024/03/26 08:21:06;;;;;;;4.80;2.90;;;;;;;;;;5006272;28;20333;-80
2024/03/26 08:23:32;;;;;;;5.93;3.00;;;;;;;;;;4984404;28;20218;-80
2024/03/26 08:25:57;;;;;;;5.17;3.30;;;;;;;;;;4971735;28;20841;-80
2024/03/26 08:28:25;;;;;;;4.70;3.07;;;;;;;;;;5001620;28;20221;-82
2024/03/26 08:30:50;;;;;;;5.17;2.93;;;;;;;;;;4998983;28;20600;-78
2024/03/26 08:33:21;;;;;;;7.37;2.90;;;;;;;;;;5001254;28;20246;-79
2024/03/26 08:35:49;;;;;;;4.73;3.00;;;;;;;;;;4960023;28;20225;-80
2024/03/26 08:38:14;;;;;;;4.70;3.00;;;;;;;;;;4985582;28;20355;-81
2024/03/26 08:40:40;;;;;;;4.10;2.80;;;;;;;;;;4990898;28;20222;-81
2024/03/26 08:43:07;;;;;;;3.47;2.80;;;;;;;;;;4987871;28;20299;-80
2024/03/26 08:45:39;;;;;;;4.83;2.63;;;;;;;;;;5005194;28;20221;-80
2024/03/26 08:48:05;;;;;;;3.30;2.77;;;;;;;;;;5001585;28;20230;-79
2024/03/26 08:50:30;;;;;;;4.10;2.60;;;;;;;;;;4972665;28;20225;-80
2024/03/26 08:52:56;;;;;;;3.80;2.20;;;;;;;;;;4972889;28;20578;-80
2024/03/26 08:55:21;;;;;;;2.30;2.00;;;;;;;;;;4999512;28;20226;-81
2024/03/26 08:57:47;;;;;;;3.30;1.70;;;;;;;;;;4989889;28;20312;-81
2024/03/26 09:00:13;;;;;;;2.90;1.80;;;;;;;;;;4970298;28;20319;-80
2024/03/26 09:02:41;;;;;;;3.13;1.70;;;;;;;;;;4954013;28;20221;-79
2024/03/26 09:05:07;;;;;;;2.10;1.90;;;;;;;;;;4986385;28;20225;-82
2024/03/26 09:07:32;;;;;;;1.70;1.50;;;;;;;;;;4988907;28;20275;-80
2024/03/26 09:09:58;;;;;;;2.90;1.67;;;;;;;;;;4980188;28;20284;-80
2024/03/26 09:12:23;;;;;;;2.03;1.60;;;;;;;;;;5003580;28;20234;-79
2024/03/26 09:14:51;;;;;;;3.50;1.77;;;;;;;;;;4988542;28;20647;-80
2024/03/26 09:17:16;;;;;;;3.23;1.70;;;;;;;;;;4992220;28;20275;-81
2024/03/26 09:19:44;;;;;;;2.73;1.60;;;;;;;;;;4958824;28;20221;-81
2024/03/26 09:22:10;;;;;;;1.97;1.83;;;;;;;;;;4981378;28;20221;-80
2024/03/26 09:24:38;;;;;;;2.03;1.43;;;;;;;;;;4967541;28;20232;-79
2024/03/26 09:27:06;;;;;;;2.67;1.60;;;;;;;;;;4997294;28;20317;-79
2024/03/26 09:29:32;;;;;;;2.73;1.60;;;;;;;;;;4995909;28;20308;-79
2024/03/26 09:31:57;;;;;;;5.70;1.57;;;;;;;;;;4973591;28;20691;-78
2024/03/26 09:34:23;;;;;;;1.80;1.40;;;;;;;;;;4991959;28;20225;-81
2024/03/26 09:36:51;;;;;;;2.27;1.40;;;;;;;;;;4958715;28;20240;-79
2024/03/26 09:39:17;;;;;;;3.73;1.50;;;;;;;;;;4990019;28;20300;-80
2024/03/26 09:41:42;;;;;;;1.90;1.40;;;;;;;;;;5000894;28;20221;-79
2024/03/26 09:44:08;;;;;;;2.83;1.50;;;;;;;;;;4965124;28;20234;-80
2024/03/26 09:46:37;;;;;;;2.27;1.40;;;;;;;;;;5008791;28;20801;-80
2024/03/26 09:49:03;;;;;;;1.57;1.20;;;;;;;;;;4986036;28;20226;-80
2024/03/26 09:51:32;;;;;;;2.00;1.23;;;;;;;;;;5004009;28;20275;-80
2024/03/26 09:53:57;;;;;;;1.87;1.43;;;;;;;;;;4969023;28;20245;-80
2024/03/26 09:56:25;;;;;;;1.83;1.20;;;;;;;;;;4984096;28;20226;-80
2024/03/26 09:58:50;;;;;;;1.57;1.30;;;;;;;;;;4955762;28;20227;-81
2024/03/26 10:01:18;;;;;;;1.53;1.30;;;;;;;;;;4990770;28;20656;-80
2024/03/26 10:03:44;;;;;;;2.43;1.57;;;;;;;;;;4964230;28;20206;-79
2024/03/26 10:06:10;;;;;;;1.60;1.20;;;;;;;;;;5019563;28;20221;-80
2024/03/26 10:08:36;;;;;;;2.50;1.23;;;;;;;;;;4966975;28;20231;-79
2024/03/26 10:11:01;;;;;;;2.30;1.10;;;;;;;;;;4990424;28;20221;-79
2024/03/26 10:13:27;;;;;;;1.67;1.30;;;;;;;;;;4977311;28;20248;-80
2024/03/26 10:15:53;;;;;;;2.33;1.50;;;;;;;;;;4986881;28;20299;-79
2024/03/26 10:18:18;;;;;;;1.40;1.17;;;;;;;;;;5002109;28;20957;-80
2024/03/26 10:20:44;;;;;;;1.40;1.30;;;;;;;;;;4991039;28;20244;-80
2024/03/26 10:23:09;;;;;;;2.33;1.00;;;;;;;;;;4997965;28;20793;-81
2024/03/26 10:25:35;;;;;;;2.30;1.40;;;;;;;;;;5002714;28;20226;-78
2024/03/26 10:28:01;;;;;;;1.27;1.10;;;;;;;;;;4981581;28;20220;-80
2024/03/26 10:30:29;;;;;;;2.03;1.37;;;;;;;;;;4956620;28;20260;-80
2024/03/26 10:33:00;;;;;;;2.03;1.43;;;;;;;;;;4968883;28;20226;-79
2024/03/26 10:35:29;;;;;;;1.47;1.30;;;;;;;;;;4981615;28;20261;-80
2024/03/26 10:37:57;;;;;;;1.90;1.30;;;;;;;;;;5005248;28;20272;-78
2024/03/26 10:40:28;;;;;;;1.63;1.50;;;;;;;;;;4997178;28;20225;-79
2024/03/26 10:42:56;;;;;;;2.17;1.50;;;;;;;;;;5000443;28;20226;-80
2024/03/26 10:45:21;;;;;;;2.03;1.40;;;;;;;;;;5007203;28;20264;-78
2024/03/26 10:47:47;;;;;;;2.27;1.40;;;;;;;;;;4981050;28;20273;-81
2024/03/26 10:50:13;;;;;;;2.53;1.40;;;;;;;;;;4978431;28;20222;-78
2024/03/26 10:52:40;;;;;;;2.93;1.37;;;;;;;;;;4984341;28;20220;-81
2024/03/26 10:55:06;;;;;;;2.80;1.40;;;;;;;;;;4972954;28;20233;-79
2024/03/26 10:57:34;;;;;;;1.80;1.40;;;;;;;;;;4953766;28;1113703;-78
2024/03/26 11:00:04;;;;;;;1.63;1.30;;;;;;;;;;4977372;28;20221;-78
2024/03/26 11:02:34;;;;;;;1.90;1.40;;;;;;;;;;4990995;28;20245;-79
2024/03/26 11:05:02;;;;;;;2.03;1.50;;;;;;;;;;4998856;28;20224;-78
2024/03/26 11:07:28;;;;;;;1.30;1.20;;;;;;;;;;5005690;28;20228;-80
2024/03/26 11:10:12;;;;;;;1.93;1.40;;;;;;;;;;5001685;28;20321;-78
2024/03/26 11:12:40;;;;;;;2.33;1.77;;;;;;;;;;5002107;28;20217;-79
2024/03/26 11:15:15;;;;;;;2.00;1.60;;;;;;;;;;4996950;28;20306;-79
2024/03/26 11:18:00;;;;;;;2.70;1.50;;;;;;;;;;4999013;28;20221;-80
2024/03/26 11:20:28;;;;;;;2.43;1.70;;;;;;;;;;4985330;28;20363;-79
2024/03/26 11:22:54;;;;;;;2.33;1.43;;;;;;;;;;4990239;28;20252;-80
2024/03/26 11:25:26;;;;;;;1.93;1.23;;;;;;;;;;5001187;28;20313;-79
2024/03/26 11:27:53;;;;;;;3.27;1.83;;;;;;;;;;4976777;28;20658;-79
2024/03/26 11:30:19;;;;;;;2.73;1.73;;;;;;;;;;4983636;28;20222;-79
2024/03/26 11:32:45;;;;;;;1.80;1.63;;;;;;;;;;4989367;28;20236;-80
2024/03/26 11:35:20;;;;;;;2.80;1.80;;;;;;;;;;4997861;28;20213;-80
2024/03/26 11:37:47;;;;;;;2.83;1.60;;;;;;;;;;4969685;28;20225;-79
2024/03/26 11:40:18;;;;;;;1.60;1.50;;;;;;;;;;4973053;28;20218;-80
2024/03/26 11:42:47;;;;;;;1.77;1.60;;;;;;;;;;4981205;28;20268;-79
2024/03/26 11:45:18;;;;;;;1.90;1.53;;;;;;;;;;4998496;28;20697;-79
2024/03/26 11:47:45;;;;;;;1.73;1.63;;;;;;;;;;4963587;28;20221;-79
2024/03/26 11:50:11;;;;;;;2.40;1.60;;;;;;;;;;4999148;28;20222;-78
2024/03/26 11:52:37;;;;;;;2.37;1.40;;;;;;;;;;4989486;28;20610;-79
2024/03/26 11:55:05;;;;;;;2.60;1.50;;;;;;;;;;5001656;28;20228;-79
2024/03/26 11:57:37;;;;;;;2.63;1.80;;;;;;;;;;5000206;28;20237;-79
2024/03/26 12:00:06;;;;;;;1.97;1.60;;;;;;;;;;4965686;28;20291;-79
2024/03/26 12:02:35;;;;;;;1.77;1.50;;;;;;;;;;4967039;28;20222;-78
2024/03/26 12:05:01;;;;;;;1.90;1.80;;;;;;;;;;4985975;28;20261;-79
2024/03/26 12:07:29;;;;;;;2.67;1.88;;;;;;;;;;4992010;28;20237;-80
2024/03/26 12:09:55;;;;;;;2.10;1.90;;;;;;;;;;4975087;28;20229;-79
2024/03/26 12:12:23;;;;;;;2.40;2.10;;;;;;;;;;5001387;28;20241;-79
2024/03/26 12:14:50;;;;;;;2.03;1.93;;;;;;;;;;4990863;28;20315;-79
2024/03/26 12:17:18;;;;;;;2.63;2.00;;;;;;;;;;4957971;28;20233;-80
2024/03/26 12:19:46;;;;;;;2.53;2.33;;;;;;;;;;4985942;28;20228;-81
2024/03/26 12:22:12;;;;;;;4.83;2.40;;;;;;;;;;4997793;28;20221;-78
2024/03/26 12:24:38;;;;;;;2.47;2.10;;;;;;;;;;4968714;28;20228;-79
2024/03/26 12:27:04;;;;;;;4.37;2.33;;;;;;;;;;5007762;28;20256;-79
2024/03/26 12:29:31;;;;;;;2.27;2.00;;;;;;;;;;4997034;28;20218;-79
2024/03/26 12:31:56;;;;;;;3.17;2.40;;;;;;;;;;4971607;28;20221;-80
2024/03/26 12:34:25;;;;;;;3.53;2.33;;;;;;;;;;4999510;28;20229;-80
2024/03/26 12:36:50;;;;;;;2.50;2.30;;;;;;;;;;4968256;28;20260;-81
2024/03/26 12:39:16;;;;;;;2.93;2.00;;;;;;;;;;4978882;28;20240;-78
2024/03/26 12:41:46;;;;;;;3.23;2.40;;;;;;;;;;4949291;28;20217;-79
2024/03/26 12:44:13;;;;;;;3.10;2.40;;;;;;;;;;4932853;28;20230;-79
2024/03/26 12:46:38;;;;;;;2.57;2.30;;;;;;;;;;4968523;28;20263;-79
2024/03/26 12:49:04;;;;;;;2.20;2.00;;;;;;;;;;4955082;28;20226;-77
2024/03/26 12:51:33;;;;;;;2.57;2.10;;;;;;;;;;4964167;28;20440;-79
2024/03/26 12:54:07;;;;;;;2.53;2.30;;;;;;;;;;4986846;28;20321;-79
2024/03/26 12:56:35;;;;;;;3.93;3.10;;;;;;;;;;4994345;28;20240;-78
2024/03/26 12:59:04;;;;;;;3.30;2.50;;;;;;;;;;4999571;28;20593;-77
2024/03/26 13:01:31;;;;;;;2.93;2.20;;;;;;;;;;4966408;28;20218;-80
2024/03/26 13:03:56;;;;;;;2.50;2.30;;;;;;;;;;4949588;28;20228;-77
2024/03/26 13:06:24;;;;;;;3.73;2.57;;;;;;;;;;4981403;28;20225;-78
2024/03/26 13:08:49;;;;;;;2.77;2.27;;;;;;;;;;4978647;28;20305;-80
2024/03/26 13:11:16;;;;;;;2.63;2.43;;;;;;;;;;4977270;28;20229;-79
2024/03/26 13:13:45;;;;;;;3.50;2.60;;;;;;;;;;5002053;28;20226;-79
2024/03/26 13:16:10;;;;;;;2.83;2.43;;;;;;;;;;4996631;28;20718;-78
2024/03/26 13:18:36;;;;;;;2.60;2.40;;;;;;;;;;4984377;28;20221;-78
2024/03/26 13:21:02;;;;;;;3.33;2.40;;;;;;;;;;5002534;28;20229;-78
2024/03/26 13:23:28;;;;;;;2.87;2.47;;;;;;;;;;4998811;28;20304;-79
2024/03/26 13:25:59;;;;;;;3.10;2.50;;;;;;;;;;4999330;28;20224;-80
2024/03/26 13:28:25;;;;;;;3.33;2.40;;;;;;;;;;4966553;28;20221;-80
2024/03/26 13:30:51;;;;;;;2.60;2.37;;;;;;;;;;4971753;28;20271;-80
2024/03/26 13:33:17;;;;;;;2.70;2.40;;;;;;;;;;4998717;28;20233;-78
2024/03/26 13:35:42;;;;;;;3.33;2.57;;;;;;;;;;4994877;28;20241;-80
2024/03/26 13:38:08;;;;;;;5.67;2.90;;;;;;;;;;4982766;28;20221;-79
2024/03/26 13:40:36;;;;;;;3.67;2.70;;;;;;;;;;4997632;28;20223;-80
2024/03/26 13:43:01;;;;;;;2.30;2.10;;;;;;;;;;4970487;28;20229;-79
2024/03/26 13:45:27;;;;;;;2.97;2.47;;;;;;;;;;4999304;28;20222;-78
2024/03/26 13:47:53;;;;;;;3.17;2.47;;;;;;;;;;4989079;28;21003;-79
2024/03/26 13:50:19;;;;;;;4.53;2.50;;;;;;;;;;4984413;28;20217;-80
2024/03/26 13:52:47;;;;;;;2.60;2.30;;;;;;;;;;4967844;28;20213;-79
2024/03/26 13:55:12;;;;;;;2.83;2.13;;;;;;;;;;4999125;28;20707;-81
2024/03/26 13:57:40;;;;;;;2.53;2.33;;;;;;;;;;4980170;28;20285;-79
2024/03/26 14:00:08;;;;;;;3.17;2.63;;;;;;;;;;4981383;28;21154;-80
2024/03/26 14:02:37;;;;;;;2.63;2.43;;;;;;;;;;4982572;28;20229;-80
2024/03/26 14:05:06;;;;;;;2.60;2.20;;;;;;;;;;4987963;28;20233;-80
2024/03/26 14:07:34;;;;;;;2.80;2.50;;;;;;;;;;4985431;28;20303;-79
2024/03/26 14:09:59;;;;;;;2.70;2.30;;;;;;;;;;4983189;28;20593;-80
2024/03/26 14:12:25;;;;;;;3.70;2.70;;;;;;;;;;4984747;28;20225;-80
2024/03/26 14:14:52;;;;;;;3.17;2.47;;;;;;;;;;4985618;28;20221;-80
2024/03/26 14:17:20;;;;;;;2.83;2.63;;;;;;;;;;4979705;28;20293;-79
2024/03/26 14:19:46;;;;;;;2.60;2.33;;;;;;;;;;5004505;28;20221;-79
2024/03/26 14:22:12;;;;;;;3.30;3.00;;;;;;;;;;4989561;28;20710;-79
2024/03/26 14:24:38;;;;;;;5.73;3.10;;;;;;;;;;5001399;28;20222;-78
2024/03/26 14:27:03;;;;;;;4.40;3.10;;;;;;;;;;4973402;28;20229;-79
2024/03/26 14:29:29;;;;;;;6.57;2.97;;;;;;;;;;4990127;28;20221;-79
2024/03/26 14:31:54;;;;;;;3.30;3.00;;;;;;;;;;4986247;28;20305;-79
2024/03/26 14:34:24;;;;;;;4.03;2.83;;;;;;;;;;4983895;28;20768;-78
2024/03/26 14:36:50;;;;;;;4.70;2.90;;;;;;;;;;4999840;28;20690;-78
2024/03/26 14:39:15;;;;;;;3.63;3.23;;;;;;;;;;4999802;28;20222;-79
2024/03/26 14:41:41;;;;;;;4.07;3.30;;;;;;;;;;5003930;28;20225;-79
2024/03/26 14:44:09;;;;;;;3.43;3.13;;;;;;;;;;5002100;28;20225;-79
2024/03/26 14:46:35;;;;;;;3.23;2.90;;;;;;;;;;5002250;28;20242;-79
2024/03/26 14:49:00;;;;;;;3.73;3.10;;;;;;;;;;4965339;28;20735;-80
2024/03/26 14:51:26;;;;;;;3.20;2.83;;;;;;;;;;4999577;28;20320;-78
2024/03/26 14:53:54;;;;;;;4.27;2.97;;;;;;;;;;4999291;28;20914;-78
2024/03/26 14:56:20;;;;;;;3.30;3.00;;;;;;;;;;5002780;28;20244;-80
2024/03/26 14:58:46;;;;;;;3.40;3.10;;;;;;;;;;4990538;28;20225;-79
2024/03/26 15:01:13;;;;;;;2.85;2.60;;;;;;;;;;5001610;28;20938;-79
2024/03/26 15:03:39;;;;;;;3.43;3.10;;;;;;;;;;5000588;28;20762;-79
2024/03/26 15:06:05;;;;;;;3.90;2.90;;;;;;;;;;4970532;28;20249;-81